sensor_id;sensor_type;location;lat;lon;timestamp;P1;durP1;ratioP1;P2;durP2;ratioP2
5273;SDS011;56254;50.956;7.010;2022-12-18T00:00:54;24.67;;;10.70;;
5273;SDS011;56254;50.956;7.010;2022-12-18T00:03:20;23.65;;;9.25;;
5273;SDS011;56254;50.956;7.010;2022-12-18T00:05:49;19.30;;;8.25;;
5273;SDS011;56254;50.956;7.010;2022-12-18T00:08:16;19.45;;;8.85;;
5273;SDS011;56254;50.956;7.010;2022-12-18T00:10:42;26.35;;;9.80;;
5273;SDS011;56254;50.956;7.010;2022-12-18T00:13:08;29.40;;;12.25;;
5273;SDS011;56254;50.956;7.010;2022-12-18T00:15:35;17.17;;;8.75;;
5273;SDS011;56254;50.956;7.010;2022-12-18T00:18:01;22.30;;;9.35;;
5273;SDS011;56254;50.956;7.010;2022-12-18T00:20:27;33.40;;;10.55;;
5273;SDS011;56254;50.956;7.010;2022-12-18T00:22:53;23.38;;;8.98;;
5273;SDS011;56254;50.956;7.010;2022-12-18T00:25:19;25.60;;;10.02;;
5273;SDS011;56254;50.956;7.010;2022-12-18T00:27:45;23.45;;;9.65;;
5273;SDS011;56254;50.956;7.010;2022-12-18T00:30:12;41.28;;;9.23;;
5273;SDS011;56254;50.956;7.010;2022-12-18T00:32:38;25.20;;;10.77;;
5273;SDS011;56254;50.956;7.010;2022-12-18T00:35:04;30.95;;;10.43;;
5273;SDS011;56254;50.956;7.010;2022-12-18T00:37:30;29.65;;;11.02;;
5273;SDS011;56254;50.956;7.010;2022-12-18T00:39:56;27.77;;;9.95;;
5273;SDS011;56254;50.956;7.010;2022-12-18T00:42:22;39.03;;;12.40;;
5273;SDS011;56254;50.956;7.010;2022-12-18T00:45:07;21.17;;;8.80;;
5273;SDS011;56254;50.956;7.010;2022-12-18T00:47:33;31.38;;;10.32;;
5273;SDS011;56254;50.956;7.010;2022-12-18T00:49:59;22.98;;;9.23;;
5273;SDS011;56254;50.956;7.010;2022-12-18T00:52:25;18.10;;;8.70;;
5273;SDS011;56254;50.956;7.010;2022-12-18T00:54:51;18.25;;;8.52;;
5273;SDS011;56254;50.956;7.010;2022-12-18T00:57:17;21.77;;;9.85;;
5273;SDS011;56254;50.956;7.010;2022-12-18T00:59:44;27.80;;;9.57;;
5273;SDS011;56254;50.956;7.010;2022-12-18T01:02:10;30.77;;;11.13;;
5273;SDS011;56254;50.956;7.010;2022-12-18T01:04:39;25.55;;;9.90;;
5273;SDS011;56254;50.956;7.010;2022-12-18T01:07:05;20.52;;;8.13;;
5273;SDS011;56254;50.956;7.010;2022-12-18T01:09:31;22.92;;;9.48;;
5273;SDS011;56254;50.956;7.010;2022-12-18T01:11:58;23.83;;;9.32;;
5273;SDS011;56254;50.956;7.010;2022-12-18T01:14:24;21.08;;;9.07;;
5273;SDS011;56254;50.956;7.010;2022-12-18T01:16:51;28.00;;;11.30;;
5273;SDS011;56254;50.956;7.010;2022-12-18T01:19:17;18.92;;;9.40;;
5273;SDS011;56254;50.956;7.010;2022-12-18T01:21:44;25.27;;;10.18;;
5273;SDS011;56254;50.956;7.010;2022-12-18T01:24:10;32.13;;;10.32;;
5273;SDS011;56254;50.956;7.010;2022-12-18T01:26:40;21.80;;;9.32;;
5273;SDS011;56254;50.956;7.010;2022-12-18T01:29:06;29.48;;;11.50;;
5273;SDS011;56254;50.956;7.010;2022-12-18T01:31:33;23.65;;;9.20;;
5273;SDS011;56254;50.956;7.010;2022-12-18T01:34:03;19.48;;;8.10;;
5273;SDS011;56254;50.956;7.010;2022-12-18T01:36:34;26.95;;;10.60;;
5273;SDS011;56254;50.956;7.010;2022-12-18T01:39:01;20.92;;;9.77;;
5273;SDS011;56254;50.956;7.010;2022-12-18T01:41:29;26.67;;;10.75;;
5273;SDS011;56254;50.956;7.010;2022-12-18T01:46:59;23.48;;;9.73;;
5273;SDS011;56254;50.956;7.010;2022-12-18T01:49:26;33.30;;;10.82;;
5273;SDS011;56254;50.956;7.010;2022-12-18T01:51:52;25.98;;;9.10;;
5273;SDS011;56254;50.956;7.010;2022-12-18T01:54:18;29.65;;;11.15;;
5273;SDS011;56254;50.956;7.010;2022-12-18T01:56:46;27.45;;;9.82;;
5273;SDS011;56254;50.956;7.010;2022-12-18T01:59:12;23.70;;;10.60;;
5273;SDS011;56254;50.956;7.010;2022-12-18T02:01:38;28.70;;;9.70;;
5273;SDS011;56254;50.956;7.010;2022-12-18T02:04:18;26.95;;;9.45;;
5273;SDS011;56254;50.956;7.010;2022-12-18T02:06:44;25.58;;;10.07;;
5273;SDS011;56254;50.956;7.010;2022-12-18T02:09:13;27.80;;;9.65;;
5273;SDS011;56254;50.956;7.010;2022-12-18T02:11:46;26.13;;;8.82;;
5273;SDS011;56254;50.956;7.010;2022-12-18T02:14:28;26.40;;;9.65;;
5273;SDS011;56254;50.956;7.010;2022-12-18T02:22:14;24.58;;;9.75;;
5273;SDS011;56254;50.956;7.010;2022-12-18T02:27:28;22.20;;;9.63;;
5273;SDS011;56254;50.956;7.010;2022-12-18T02:29:55;19.25;;;8.60;;
5273;SDS011;56254;50.956;7.010;2022-12-18T02:32:24;24.30;;;7.95;;
5273;SDS011;56254;50.956;7.010;2022-12-18T02:34:51;27.65;;;10.15;;
5273;SDS011;56254;50.956;7.010;2022-12-18T02:37:19;29.13;;;9.02;;
5273;SDS011;56254;50.956;7.010;2022-12-18T02:39:47;20.60;;;9.55;;
5273;SDS011;56254;50.956;7.010;2022-12-18T02:42:14;22.52;;;9.23;;
5273;SDS011;56254;50.956;7.010;2022-12-18T02:44:45;23.92;;;9.23;;
5273;SDS011;56254;50.956;7.010;2022-12-18T02:47:12;17.88;;;8.77;;
5273;SDS011;56254;50.956;7.010;2022-12-18T02:54:49;21.10;;;7.15;;
5273;SDS011;56254;50.956;7.010;2022-12-18T03:00:16;19.13;;;9.63;;
5273;SDS011;56254;50.956;7.010;2022-12-18T03:03:03;19.00;;;8.70;;
5273;SDS011;56254;50.956;7.010;2022-12-18T03:05:36;27.40;;;9.02;;
5273;SDS011;56254;50.956;7.010;2022-12-18T03:08:12;24.30;;;10.55;;
5273;SDS011;56254;50.956;7.010;2022-12-18T03:10:40;18.27;;;8.30;;
5273;SDS011;56254;50.956;7.010;2022-12-18T03:13:23;24.05;;;9.25;;
5273;SDS011;56254;50.956;7.010;2022-12-18T03:15:55;16.45;;;7.97;;
5273;SDS011;56254;50.956;7.010;2022-12-18T03:18:46;20.27;;;8.40;;
5273;SDS011;56254;50.956;7.010;2022-12-18T03:21:10;18.80;;;8.77;;
5273;SDS011;56254;50.956;7.010;2022-12-18T03:23:40;16.48;;;8.10;;
5273;SDS011;56254;50.956;7.010;2022-12-18T03:26:07;16.50;;;7.65;;
5273;SDS011;56254;50.956;7.010;2022-12-18T03:28:35;21.58;;;8.45;;
5273;SDS011;56254;50.956;7.010;2022-12-18T03:31:03;24.25;;;7.47;;
5273;SDS011;56254;50.956;7.010;2022-12-18T03:33:38;18.17;;;7.45;;
5273;SDS011;56254;50.956;7.010;2022-12-18T03:36:05;20.50;;;7.07;;
5273;SDS011;56254;50.956;7.010;2022-12-18T03:38:32;22.92;;;8.45;;
5273;SDS011;56254;50.956;7.010;2022-12-18T03:46:05;24.92;;;7.22;;
5273;SDS011;56254;50.956;7.010;2022-12-18T03:48:43;17.58;;;8.40;;
5273;SDS011;56254;50.956;7.010;2022-12-18T03:51:18;18.00;;;7.03;;
5273;SDS011;56254;50.956;7.010;2022-12-18T03:56:17;29.35;;;9.18;;
5273;SDS011;56254;50.956;7.010;2022-12-18T03:58:44;25.50;;;9.63;;
5273;SDS011;56254;50.956;7.010;2022-12-18T04:01:12;14.43;;;7.50;;
5273;SDS011;56254;50.956;7.010;2022-12-18T04:03:40;27.75;;;11.00;;
5273;SDS011;56254;50.956;7.010;2022-12-18T04:06:08;21.30;;;8.57;;
5273;SDS011;56254;50.956;7.010;2022-12-18T04:08:34;18.98;;;9.15;;
5273;SDS011;56254;50.956;7.010;2022-12-18T04:11:01;23.10;;;9.20;;
5273;SDS011;56254;50.956;7.010;2022-12-18T04:13:28;19.35;;;7.32;;
5273;SDS011;56254;50.956;7.010;2022-12-18T04:15:54;17.45;;;8.75;;
5273;SDS011;56254;50.956;7.010;2022-12-18T04:18:20;14.13;;;8.38;;
5273;SDS011;56254;50.956;7.010;2022-12-18T04:20:46;17.38;;;8.48;;
5273;SDS011;56254;50.956;7.010;2022-12-18T04:23:12;15.63;;;7.15;;
5273;SDS011;56254;50.956;7.010;2022-12-18T04:25:38;20.97;;;9.60;;
5273;SDS011;56254;50.956;7.010;2022-12-18T04:28:05;27.17;;;8.75;;
5273;SDS011;56254;50.956;7.010;2022-12-18T04:30:31;28.98;;;8.57;;
5273;SDS011;56254;50.956;7.010;2022-12-18T04:32:57;21.92;;;8.90;;
5273;SDS011;56254;50.956;7.010;2022-12-18T04:35:23;18.00;;;6.93;;
5273;SDS011;56254;50.956;7.010;2022-12-18T04:37:49;19.63;;;7.80;;
5273;SDS011;56254;50.956;7.010;2022-12-18T04:40:15;20.42;;;8.80;;
5273;SDS011;56254;50.956;7.010;2022-12-18T04:42:42;39.17;;;10.27;;
5273;SDS011;56254;50.956;7.010;2022-12-18T04:45:08;23.75;;;9.70;;
5273;SDS011;56254;50.956;7.010;2022-12-18T04:47:34;26.92;;;11.02;;
5273;SDS011;56254;50.956;7.010;2022-12-18T04:50:01;16.70;;;7.70;;
5273;SDS011;56254;50.956;7.010;2022-12-18T04:52:27;22.33;;;9.00;;
5273;SDS011;56254;50.956;7.010;2022-12-18T04:54:57;15.73;;;7.45;;
5273;SDS011;56254;50.956;7.010;2022-12-18T04:57:23;21.02;;;9.15;;
5273;SDS011;56254;50.956;7.010;2022-12-18T04:59:50;42.20;;;9.30;;
5273;SDS011;56254;50.956;7.010;2022-12-18T05:02:15;31.63;;;9.40;;
5273;SDS011;56254;50.956;7.010;2022-12-18T05:04:42;22.65;;;8.27;;
5273;SDS011;56254;50.956;7.010;2022-12-18T05:07:08;31.27;;;8.63;;
5273;SDS011;56254;50.956;7.010;2022-12-18T05:09:34;19.40;;;6.97;;
5273;SDS011;56254;50.956;7.010;2022-12-18T05:12:01;25.85;;;8.52;;
5273;SDS011;56254;50.956;7.010;2022-12-18T05:14:27;21.10;;;6.93;;
5273;SDS011;56254;50.956;7.010;2022-12-18T05:16:54;26.23;;;9.30;;
5273;SDS011;56254;50.956;7.010;2022-12-18T05:19:20;21.85;;;8.48;;
5273;SDS011;56254;50.956;7.010;2022-12-18T05:21:46;15.85;;;7.50;;
5273;SDS011;56254;50.956;7.010;2022-12-18T05:24:12;17.40;;;6.63;;
5273;SDS011;56254;50.956;7.010;2022-12-18T05:26:38;26.67;;;9.25;;
5273;SDS011;56254;50.956;7.010;2022-12-18T05:29:04;25.15;;;8.48;;
5273;SDS011;56254;50.956;7.010;2022-12-18T05:31:37;19.30;;;8.32;;
5273;SDS011;56254;50.956;7.010;2022-12-18T05:34:03;18.05;;;8.38;;
5273;SDS011;56254;50.956;7.010;2022-12-18T05:36:29;13.27;;;7.30;;
5273;SDS011;56254;50.956;7.010;2022-12-18T05:38:55;23.63;;;8.27;;
5273;SDS011;56254;50.956;7.010;2022-12-18T05:41:21;17.60;;;7.20;;
5273;SDS011;56254;50.956;7.010;2022-12-18T05:43:47;20.70;;;8.63;;
5273;SDS011;56254;50.956;7.010;2022-12-18T05:46:14;23.17;;;7.95;;
5273;SDS011;56254;50.956;7.010;2022-12-18T05:48:41;21.27;;;7.95;;
5273;SDS011;56254;50.956;7.010;2022-12-18T05:51:09;25.92;;;10.20;;
5273;SDS011;56254;50.956;7.010;2022-12-18T05:53:35;18.75;;;7.50;;
5273;SDS011;56254;50.956;7.010;2022-12-18T05:56:03;26.10;;;9.25;;
5273;SDS011;56254;50.956;7.010;2022-12-18T05:58:30;14.60;;;7.95;;
5273;SDS011;56254;50.956;7.010;2022-12-18T06:00:56;27.08;;;8.93;;
5273;SDS011;56254;50.956;7.010;2022-12-18T06:03:22;27.45;;;8.15;;
5273;SDS011;56254;50.956;7.010;2022-12-18T06:05:48;14.40;;;8.15;;
5273;SDS011;56254;50.956;7.010;2022-12-18T06:08:14;25.47;;;8.00;;
5273;SDS011;56254;50.956;7.010;2022-12-18T06:10:41;23.50;;;9.85;;
5273;SDS011;56254;50.956;7.010;2022-12-18T06:13:07;19.92;;;8.30;;
5273;SDS011;56254;50.956;7.010;2022-12-18T06:15:35;21.20;;;8.93;;
5273;SDS011;56254;50.956;7.010;2022-12-18T06:18:02;14.68;;;6.95;;
5273;SDS011;56254;50.956;7.010;2022-12-18T06:20:28;20.25;;;8.82;;
5273;SDS011;56254;50.956;7.010;2022-12-18T06:22:57;21.08;;;9.23;;
5273;SDS011;56254;50.956;7.010;2022-12-18T06:25:23;21.80;;;9.27;;
5273;SDS011;56254;50.956;7.010;2022-12-18T06:27:49;19.95;;;8.85;;
5273;SDS011;56254;50.956;7.010;2022-12-18T06:30:15;22.13;;;8.35;;
5273;SDS011;56254;50.956;7.010;2022-12-18T06:32:41;21.55;;;8.57;;
5273;SDS011;56254;50.956;7.010;2022-12-18T06:35:08;21.03;;;9.13;;
5273;SDS011;56254;50.956;7.010;2022-12-18T06:37:34;30.15;;;10.50;;
5273;SDS011;56254;50.956;7.010;2022-12-18T06:40:00;19.30;;;7.97;;
5273;SDS011;56254;50.956;7.010;2022-12-18T06:42:26;23.77;;;10.50;;
5273;SDS011;56254;50.956;7.010;2022-12-18T06:44:52;20.27;;;9.07;;
5273;SDS011;56254;50.956;7.010;2022-12-18T06:47:18;20.30;;;10.02;;
5273;SDS011;56254;50.956;7.010;2022-12-18T06:49:44;33.30;;;9.75;;
5273;SDS011;56254;50.956;7.010;2022-12-18T06:52:10;26.10;;;9.88;;
5273;SDS011;56254;50.956;7.010;2022-12-18T06:54:37;19.83;;;9.63;;
5273;SDS011;56254;50.956;7.010;2022-12-18T06:57:03;31.00;;;10.20;;
5273;SDS011;56254;50.956;7.010;2022-12-18T06:59:29;26.60;;;9.80;;
5273;SDS011;56254;50.956;7.010;2022-12-18T07:01:55;28.67;;;12.30;;
5273;SDS011;56254;50.956;7.010;2022-12-18T07:04:21;24.93;;;9.60;;
5273;SDS011;56254;50.956;7.010;2022-12-18T07:06:47;24.77;;;9.57;;
5273;SDS011;56254;50.956;7.010;2022-12-18T07:09:13;27.23;;;9.57;;
5273;SDS011;56254;50.956;7.010;2022-12-18T07:11:39;27.65;;;11.80;;
5273;SDS011;56254;50.956;7.010;2022-12-18T07:14:05;28.07;;;10.30;;
5273;SDS011;56254;50.956;7.010;2022-12-18T07:16:31;17.42;;;8.65;;
5273;SDS011;56254;50.956;7.010;2022-12-18T07:18:57;32.05;;;11.18;;
5273;SDS011;56254;50.956;7.010;2022-12-18T07:21:23;23.00;;;10.30;;
5273;SDS011;56254;50.956;7.010;2022-12-18T07:23:50;20.92;;;9.23;;
5273;SDS011;56254;50.956;7.010;2022-12-18T07:26:17;20.00;;;9.85;;
5273;SDS011;56254;50.956;7.010;2022-12-18T07:28:43;29.70;;;9.02;;
5273;SDS011;56254;50.956;7.010;2022-12-18T07:31:10;25.40;;;11.37;;
5273;SDS011;56254;50.956;7.010;2022-12-18T07:33:37;34.35;;;11.18;;
5273;SDS011;56254;50.956;7.010;2022-12-18T07:36:03;29.02;;;9.00;;
5273;SDS011;56254;50.956;7.010;2022-12-18T07:38:30;17.23;;;8.07;;
5273;SDS011;56254;50.956;7.010;2022-12-18T07:41:02;14.35;;;7.95;;
5273;SDS011;56254;50.956;7.010;2022-12-18T07:43:29;25.60;;;10.02;;
5273;SDS011;56254;50.956;7.010;2022-12-18T07:45:55;25.00;;;9.63;;
5273;SDS011;56254;50.956;7.010;2022-12-18T07:48:21;22.45;;;8.35;;
5273;SDS011;56254;50.956;7.010;2022-12-18T07:50:48;27.30;;;10.40;;
5273;SDS011;56254;50.956;7.010;2022-12-18T07:53:14;24.48;;;9.00;;
5273;SDS011;56254;50.956;7.010;2022-12-18T07:55:40;24.27;;;9.87;;
5273;SDS011;56254;50.956;7.010;2022-12-18T07:58:06;26.50;;;8.32;;
5273;SDS011;56254;50.956;7.010;2022-12-18T08:00:33;21.02;;;9.25;;
5273;SDS011;56254;50.956;7.010;2022-12-18T08:02:59;21.83;;;9.73;;
5273;SDS011;56254;50.956;7.010;2022-12-18T08:05:25;30.88;;;10.07;;
5273;SDS011;56254;50.956;7.010;2022-12-18T08:07:51;24.17;;;8.70;;
5273;SDS011;56254;50.956;7.010;2022-12-18T08:10:18;21.15;;;9.55;;
5273;SDS011;56254;50.956;7.010;2022-12-18T08:12:44;41.30;;;15.52;;
5273;SDS011;56254;50.956;7.010;2022-12-18T08:15:10;24.55;;;9.38;;
5273;SDS011;56254;50.956;7.010;2022-12-18T08:17:36;26.05;;;10.25;;
5273;SDS011;56254;50.956;7.010;2022-12-18T08:20:02;22.63;;;9.98;;
5273;SDS011;56254;50.956;7.010;2022-12-18T08:22:29;23.02;;;9.65;;
5273;SDS011;56254;50.956;7.010;2022-12-18T08:24:55;26.80;;;10.17;;
5273;SDS011;56254;50.956;7.010;2022-12-18T08:27:21;20.13;;;9.32;;
5273;SDS011;56254;50.956;7.010;2022-12-18T08:29:47;21.38;;;9.13;;
5273;SDS011;56254;50.956;7.010;2022-12-18T08:32:13;24.03;;;9.50;;
5273;SDS011;56254;50.956;7.010;2022-12-18T08:34:39;26.17;;;11.23;;
5273;SDS011;56254;50.956;7.010;2022-12-18T08:37:05;30.10;;;9.85;;
5273;SDS011;56254;50.956;7.010;2022-12-18T08:39:31;19.97;;;9.20;;
5273;SDS011;56254;50.956;7.010;2022-12-18T08:41:57;21.85;;;9.35;;
5273;SDS011;56254;50.956;7.010;2022-12-18T08:44:42;20.45;;;7.95;;
5273;SDS011;56254;50.956;7.010;2022-12-18T08:47:08;23.30;;;9.68;;
5273;SDS011;56254;50.956;7.010;2022-12-18T08:49:34;24.58;;;8.95;;
5273;SDS011;56254;50.956;7.010;2022-12-18T08:52:00;19.90;;;9.23;;
5273;SDS011;56254;50.956;7.010;2022-12-18T08:54:28;22.83;;;10.00;;
5273;SDS011;56254;50.956;7.010;2022-12-18T08:56:54;21.38;;;8.32;;
5273;SDS011;56254;50.956;7.010;2022-12-18T08:59:21;24.30;;;8.98;;
5273;SDS011;56254;50.956;7.010;2022-12-18T09:01:48;23.15;;;10.15;;
5273;SDS011;56254;50.956;7.010;2022-12-18T09:04:14;24.65;;;9.55;;
5273;SDS011;56254;50.956;7.010;2022-12-18T09:06:40;29.40;;;10.63;;
5273;SDS011;56254;50.956;7.010;2022-12-18T09:09:06;23.63;;;10.13;;
5273;SDS011;56254;50.956;7.010;2022-12-18T09:11:32;26.85;;;9.65;;
5273;SDS011;56254;50.956;7.010;2022-12-18T09:13:59;17.30;;;8.50;;
5273;SDS011;56254;50.956;7.010;2022-12-18T09:16:26;23.88;;;9.98;;
5273;SDS011;56254;50.956;7.010;2022-12-18T09:18:53;27.58;;;11.75;;
5273;SDS011;56254;50.956;7.010;2022-12-18T09:21:24;32.33;;;12.13;;
5273;SDS011;56254;50.956;7.010;2022-12-18T09:23:50;37.58;;;9.35;;
5273;SDS011;56254;50.956;7.010;2022-12-18T09:26:16;24.75;;;9.73;;
5273;SDS011;56254;50.956;7.010;2022-12-18T09:28:43;28.70;;;9.57;;
5273;SDS011;56254;50.956;7.010;2022-12-18T09:31:10;28.95;;;10.25;;
5273;SDS011;56254;50.956;7.010;2022-12-18T09:33:40;21.95;;;9.57;;
5273;SDS011;56254;50.956;7.010;2022-12-18T09:36:06;26.35;;;9.73;;
5273;SDS011;56254;50.956;7.010;2022-12-18T09:38:33;18.23;;;8.32;;
5273;SDS011;56254;50.956;7.010;2022-12-18T09:41:15;28.50;;;8.70;;
5273;SDS011;56254;50.956;7.010;2022-12-18T09:43:44;23.33;;;9.35;;
5273;SDS011;56254;50.956;7.010;2022-12-18T09:46:14;18.38;;;8.57;;
5273;SDS011;56254;50.956;7.010;2022-12-18T09:48:44;20.33;;;8.35;;
5273;SDS011;56254;50.956;7.010;2022-12-18T09:51:13;21.75;;;9.63;;
5273;SDS011;56254;50.956;7.010;2022-12-18T09:53:43;24.30;;;9.68;;
5273;SDS011;56254;50.956;7.010;2022-12-18T09:56:16;22.17;;;9.15;;
5273;SDS011;56254;50.956;7.010;2022-12-18T09:58:47;21.20;;;8.75;;
5273;SDS011;56254;50.956;7.010;2022-12-18T10:01:16;31.15;;;11.48;;
5273;SDS011;56254;50.956;7.010;2022-12-18T10:03:44;25.45;;;10.30;;
5273;SDS011;56254;50.956;7.010;2022-12-18T10:06:27;26.75;;;10.32;;
5273;SDS011;56254;50.956;7.010;2022-12-18T10:13:56;31.58;;;10.50;;
5273;SDS011;56254;50.956;7.010;2022-12-18T10:21:24;18.35;;;8.48;;
5273;SDS011;56254;50.956;7.010;2022-12-18T10:26:27;29.83;;;10.48;;
5273;SDS011;56254;50.956;7.010;2022-12-18T10:28:53;22.88;;;9.35;;
5273;SDS011;56254;50.956;7.010;2022-12-18T10:31:20;16.75;;;7.45;;
5273;SDS011;56254;50.956;7.010;2022-12-18T10:33:47;24.88;;;10.82;;
5273;SDS011;56254;50.956;7.010;2022-12-18T10:36:14;23.58;;;9.20;;
5273;SDS011;56254;50.956;7.010;2022-12-18T10:38:40;20.70;;;7.32;;
5273;SDS011;56254;50.956;7.010;2022-12-18T10:43:37;29.45;;;10.27;;
5273;SDS011;56254;50.956;7.010;2022-12-18T10:48:36;22.83;;;10.70;;
5273;SDS011;56254;50.956;7.010;2022-12-18T10:51:05;28.30;;;12.38;;
5273;SDS011;56254;50.956;7.010;2022-12-18T10:53:33;25.63;;;10.02;;
5273;SDS011;56254;50.956;7.010;2022-12-18T10:56:00;19.65;;;9.13;;
5273;SDS011;56254;50.956;7.010;2022-12-18T10:58:33;19.35;;;9.63;;
5273;SDS011;56254;50.956;7.010;2022-12-18T11:03:36;24.85;;;10.85;;
5273;SDS011;56254;50.956;7.010;2022-12-18T11:08:32;31.63;;;11.48;;
5273;SDS011;56254;50.956;7.010;2022-12-18T11:10:58;26.33;;;10.73;;
5273;SDS011;56254;50.956;7.010;2022-12-18T11:13:26;11.13;;;4.60;;
5273;SDS011;56254;50.956;7.010;2022-12-18T11:15:52;25.02;;;11.70;;
5273;SDS011;56254;50.956;7.010;2022-12-18T11:18:34;19.13;;;9.93;;
5273;SDS011;56254;50.956;7.010;2022-12-18T11:21:05;24.98;;;7.63;;
5273;SDS011;56254;50.956;7.010;2022-12-18T11:23:32;54.20;;;10.68;;
5273;SDS011;56254;50.956;7.010;2022-12-18T11:25:59;21.95;;;8.23;;
5273;SDS011;56254;50.956;7.010;2022-12-18T11:29:07;27.65;;;10.68;;
5273;SDS011;56254;50.956;7.010;2022-12-18T11:34:31;23.80;;;10.25;;
5273;SDS011;56254;50.956;7.010;2022-12-18T11:36:33;23.90;;;10.25;;
5273;SDS011;56254;50.956;7.010;2022-12-18T11:39:03;28.83;;;11.82;;
5273;SDS011;56254;50.956;7.010;2022-12-18T11:41:37;39.08;;;10.18;;
5273;SDS011;56254;50.956;7.010;2022-12-18T11:44:45;21.95;;;10.18;;
5273;SDS011;56254;50.956;7.010;2022-12-18T11:47:15;24.55;;;9.13;;
5273;SDS011;56254;50.956;7.010;2022-12-18T11:49:45;28.73;;;9.27;;
5273;SDS011;56254;50.956;7.010;2022-12-18T11:54:39;31.52;;;10.02;;
5273;SDS011;56254;50.956;7.010;2022-12-18T12:07:20;20.00;;;7.87;;
5273;SDS011;56254;50.956;7.010;2022-12-18T12:09:55;26.25;;;7.80;;
5273;SDS011;56254;50.956;7.010;2022-12-18T12:12:28;34.85;;;11.90;;
5273;SDS011;56254;50.956;7.010;2022-12-18T12:14:58;19.60;;;8.75;;
5273;SDS011;56254;50.956;7.010;2022-12-18T12:20:02;27.87;;;12.70;;
5273;SDS011;56254;50.956;7.010;2022-12-18T12:30:41;26.92;;;10.27;;
5273;SDS011;56254;50.956;7.010;2022-12-18T12:38:27;29.45;;;12.02;;
5273;SDS011;56254;50.956;7.010;2022-12-18T12:40:59;13.93;;;7.53;;
5273;SDS011;56254;50.956;7.010;2022-12-18T12:43:32;29.55;;;10.82;;
5273;SDS011;56254;50.956;7.010;2022-12-18T12:46:32;20.15;;;9.57;;
5273;SDS011;56254;50.956;7.010;2022-12-18T12:48:52;17.83;;;9.70;;
5273;SDS011;56254;50.956;7.010;2022-12-18T12:51:23;24.90;;;9.90;;
5273;SDS011;56254;50.956;7.010;2022-12-18T12:53:50;33.57;;;10.67;;
5273;SDS011;56254;50.956;7.010;2022-12-18T12:56:18;24.20;;;10.18;;
5273;SDS011;56254;50.956;7.010;2022-12-18T13:01:40;23.60;;;10.63;;
5273;SDS011;56254;50.956;7.010;2022-12-18T13:09:17;44.90;;;13.68;;
5273;SDS011;56254;50.956;7.010;2022-12-18T13:11:44;50.70;;;15.80;;
5273;SDS011;56254;50.956;7.010;2022-12-18T13:14:31;35.75;;;12.57;;
5273;SDS011;56254;50.956;7.010;2022-12-18T13:19:43;23.92;;;10.32;;
5273;SDS011;56254;50.956;7.010;2022-12-18T13:22:28;35.55;;;13.43;;
5273;SDS011;56254;50.956;7.010;2022-12-18T13:24:54;25.35;;;10.25;;
5273;SDS011;56254;50.956;7.010;2022-12-18T13:38:33;35.95;;;14.10;;
5273;SDS011;56254;50.956;7.010;2022-12-18T13:43:48;30.23;;;11.90;;
5273;SDS011;56254;50.956;7.010;2022-12-18T13:46:56;42.25;;;13.50;;
5273;SDS011;56254;50.956;7.010;2022-12-18T13:51:39;34.20;;;11.75;;
5273;SDS011;56254;50.956;7.010;2022-12-18T13:56:45;31.75;;;14.27;;
5273;SDS011;56254;50.956;7.010;2022-12-18T14:01:57;16.93;;;7.53;;
5273;SDS011;56254;50.956;7.010;2022-12-18T14:04:28;31.25;;;10.88;;
5273;SDS011;56254;50.956;7.010;2022-12-18T14:07:36;38.13;;;14.20;;
5273;SDS011;56254;50.956;7.010;2022-12-18T14:09:44;42.40;;;14.23;;
5273;SDS011;56254;50.956;7.010;2022-12-18T14:12:14;38.60;;;13.18;;
5273;SDS011;56254;50.956;7.010;2022-12-18T14:14:53;23.90;;;9.20;;
5273;SDS011;56254;50.956;7.010;2022-12-18T14:17:19;35.17;;;13.90;;
5273;SDS011;56254;50.956;7.010;2022-12-18T14:19:46;32.57;;;14.27;;
5273;SDS011;56254;50.956;7.010;2022-12-18T14:22:17;39.65;;;15.80;;
5273;SDS011;56254;50.956;7.010;2022-12-18T14:24:43;36.45;;;13.68;;
5273;SDS011;56254;50.956;7.010;2022-12-18T14:27:28;30.15;;;12.38;;
5273;SDS011;56254;50.956;7.010;2022-12-18T14:29:54;20.38;;;9.73;;
5273;SDS011;56254;50.956;7.010;2022-12-18T14:32:20;38.23;;;14.67;;
5273;SDS011;56254;50.956;7.010;2022-12-18T14:34:47;44.47;;;13.52;;
5273;SDS011;56254;50.956;7.010;2022-12-18T14:37:15;21.25;;;9.30;;
5273;SDS011;56254;50.956;7.010;2022-12-18T14:39:51;20.30;;;8.63;;
5273;SDS011;56254;50.956;7.010;2022-12-18T14:42:17;28.95;;;10.52;;
5273;SDS011;56254;50.956;7.010;2022-12-18T14:44:43;37.20;;;15.10;;
5273;SDS011;56254;50.956;7.010;2022-12-18T14:47:13;24.20;;;9.13;;
5273;SDS011;56254;50.956;7.010;2022-12-18T14:49:39;25.65;;;11.10;;
5273;SDS011;56254;50.956;7.010;2022-12-18T14:52:20;30.35;;;13.45;;
5273;SDS011;56254;50.956;7.010;2022-12-18T14:54:48;41.20;;;16.67;;
5273;SDS011;56254;50.956;7.010;2022-12-18T14:59:41;22.98;;;7.85;;
5273;SDS011;56254;50.956;7.010;2022-12-18T15:04:34;24.37;;;11.90;;
5273;SDS011;56254;50.956;7.010;2022-12-18T15:10:08;23.75;;;11.40;;
5273;SDS011;56254;50.956;7.010;2022-12-18T15:14:54;32.67;;;11.20;;
5273;SDS011;56254;50.956;7.010;2022-12-18T15:17:23;28.52;;;10.82;;
5273;SDS011;56254;50.956;7.010;2022-12-18T15:19:51;65.95;;;13.10;;
5273;SDS011;56254;50.956;7.010;2022-12-18T15:22:35;57.33;;;17.23;;
5273;SDS011;56254;50.956;7.010;2022-12-18T15:25:03;41.92;;;16.05;;
5273;SDS011;56254;50.956;7.010;2022-12-18T15:27:31;24.73;;;10.63;;
5273;SDS011;56254;50.956;7.010;2022-12-18T15:30:01;34.30;;;13.65;;
5273;SDS011;56254;50.956;7.010;2022-12-18T15:32:27;31.50;;;13.90;;
5273;SDS011;56254;50.956;7.010;2022-12-18T15:35:07;35.22;;;14.63;;
5273;SDS011;56254;50.956;7.010;2022-12-18T15:37:37;39.47;;;12.68;;
5273;SDS011;56254;50.956;7.010;2022-12-18T15:40:07;41.45;;;17.10;;
5273;SDS011;56254;50.956;7.010;2022-12-18T15:42:34;33.78;;;14.52;;
5273;SDS011;56254;50.956;7.010;2022-12-18T15:45:19;24.00;;;11.05;;
5273;SDS011;56254;50.956;7.010;2022-12-18T15:47:45;53.43;;;18.77;;
5273;SDS011;56254;50.956;7.010;2022-12-18T15:50:11;44.43;;;17.17;;
5273;SDS011;56254;50.956;7.010;2022-12-18T15:52:45;17.30;;;7.18;;
5273;SDS011;56254;50.956;7.010;2022-12-18T15:55:15;30.25;;;12.50;;
5273;SDS011;56254;50.956;7.010;2022-12-18T15:58:00;43.38;;;13.68;;
5273;SDS011;56254;50.956;7.010;2022-12-18T16:00:26;38.05;;;15.30;;
5273;SDS011;56254;50.956;7.010;2022-12-18T16:02:52;36.55;;;14.07;;
5273;SDS011;56254;50.956;7.010;2022-12-18T16:05:19;37.80;;;15.88;;
5273;SDS011;56254;50.956;7.010;2022-12-18T16:07:46;31.88;;;15.25;;
5273;SDS011;56254;50.956;7.010;2022-12-18T16:10:12;33.22;;;15.05;;
5273;SDS011;56254;50.956;7.010;2022-12-18T16:12:40;38.97;;;18.42;;
5273;SDS011;56254;50.956;7.010;2022-12-18T16:15:06;38.83;;;15.32;;
5273;SDS011;56254;50.956;7.010;2022-12-18T16:17:32;36.22;;;14.05;;
5273;SDS011;56254;50.956;7.010;2022-12-18T16:19:58;52.55;;;19.40;;
5273;SDS011;56254;50.956;7.010;2022-12-18T16:22:25;34.20;;;13.63;;
5273;SDS011;56254;50.956;7.010;2022-12-18T16:24:52;45.08;;;17.67;;
5273;SDS011;56254;50.956;7.010;2022-12-18T16:27:19;42.92;;;16.73;;
5273;SDS011;56254;50.956;7.010;2022-12-18T16:29:45;43.33;;;16.33;;
5273;SDS011;56254;50.956;7.010;2022-12-18T16:32:15;33.30;;;13.32;;
5273;SDS011;56254;50.956;7.010;2022-12-18T16:34:41;54.88;;;19.35;;
5273;SDS011;56254;50.956;7.010;2022-12-18T16:37:09;46.85;;;17.98;;
5273;SDS011;56254;50.956;7.010;2022-12-18T16:39:35;59.17;;;20.23;;
5273;SDS011;56254;50.956;7.010;2022-12-18T16:42:04;51.42;;;15.90;;
5273;SDS011;56254;50.956;7.010;2022-12-18T16:44:30;36.90;;;13.40;;
5273;SDS011;56254;50.956;7.010;2022-12-18T16:46:56;54.30;;;21.10;;
5273;SDS011;56254;50.956;7.010;2022-12-18T16:49:26;38.70;;;15.05;;
5273;SDS011;56254;50.956;7.010;2022-12-18T16:51:53;42.13;;;16.17;;
5273;SDS011;56254;50.956;7.010;2022-12-18T16:54:19;31.42;;;12.32;;